Terminal Aerodrome Forecast
Issued by NWS

Home | Current Version | Previous Version | Graphics & Text | Print | Product List | Glossary On
Versions: 1 2 3 4 5 6 7 8 9 10 11 12 13 14 15 16 17 18 19 20 21 22 23 24 25 26 27 28
854
FTUS45 KGGW 242043 AAA
TAFGDV
TAF AMD
KGDV 242043Z 2421/2518 34027G36KT 6SM -SHRA OVC010
     FM250100 32023G32KT P6SM VCSH SCT007 BKN012
     FM250600 31021G31KT P6SM SCT015 BKN035
     FM250900 30016G24KT P6SM FEW040 SCT100
     FM251200 30013KT P6SM FEW200=

USA.gov is the U.S. government's official web portal to all federal, state and local government web resources and services.